Batiscan, Canada
Current Conditions -  °F | °C
As of 10:00 PM on Monday 20 Oct 2014 (Local Time) from CYRQ Reporting Station
Overcast Overcast  
Wind Chill: 37°   Ceiling: 13000
Heat Index: 37°   Visibility: 9mi
Dew Point: 32°   Wind: 2mph
Humidity: 81%   Direction: 220°SW
Pressure: 29.96"   Gusts: NA
Location:  46.5°N, 72.25°W
Report Text: CYRQ 210200Z AUTO 22002KT 9SM SCT090 OVC130 03/M00 A2996 RMK SLP147
Loading
Personal Weather Stations






























Interactive Weather Map
Tropical Storm Tracking
New forecast layout! Learn more

10-Day Weather Forecast

Advertisements
Track Severe Weather on mobile